Latest Coastal Weather Observations for Yeppoon

IDQ60701

Issued at 11:42 pm EST Tuesday 15 October 2019 (issued every 10 minutes, with the page automatically refreshed every 10 minutes)

About coastal observations | Map of coastal stations | Coastal observations for QLD | Marine services | Other Formats
Station Details ID: 033294 Name: YEPPOON THE ESPLANADE Lat: -23.14 Lon: 150.75 Height: 5.5 m
Data from the previous 72 hours. | See also: Recent months at Yeppoon
Date/Time
EST
Wind Sea
Height
m
Swell Vis
km
Cloud Weather Temp
°C
Press
hPa
Rain since
9am
mm
Dir  Spd
kts
Gust
kts
Height
m
Period
s
Dir
15/11:30pm N 14 17 - - - - - - - 23.6 1013.0 0.0
15/11:00pm NNE 19 22 - - - - - - - 23.8 1013.0 0.0
15/10:30pm NNE 19 22 - - - - - - - 23.7 1012.9 0.0
15/10:00pm NNE 20 24 - - - - - - - 23.7 1012.8 0.0
15/09:30pm NNE 20 23 - - - - - - - 23.7 1012.7 0.0
15/09:00pm NNE 17 21 - - - - - - - 23.8 1012.8 0.0
15/08:30pm N 15 17 - - - - - - - 23.5 1012.7 0.0
15/08:00pm N 15 19 - - - - - - - 23.7 1012.3 0.0
15/07:30pm N 16 20 - - - - - - - 24.1 1012.1 0.0
15/07:00pm N 16 20 - - - - - - - 24.7 1011.4 0.0
15/06:30pm N 20 24 - - - - - - - 25.0 1010.7 0.0
15/06:00pm N 19 22 - - - - - - - 25.7 1010.3 0.0
15/05:30pm N 18 22 - - - - - - - 26.4 1009.8 0.0
15/05:00pm N 20 23 - - - - - - - 26.7 1009.4 0.0
15/04:30pm NNE 21 23 - - - - - - - 26.9 1009.3 0.0
15/04:00pm NNE 22 26 - - - - - - - 27.3 1009.0 0.0
15/03:30pm NNE 20 26 - - - - - - - 27.0 1008.7 0.0
15/03:00pm NNE 21 24 - - - - - - - 27.9 1009.1 0.0
15/02:30pm NNE 22 27 - - - - - - - 27.5 1009.2 0.0
15/02:00pm NNE 23 28 - - - - - - - 28.3 1009.4 0.0
15/01:32pm NNE 20 32 - - - - - - - 29.1 1009.9 0.0
15/01:30pm NNE 20 27 - - - - - - - 28.4 1009.9 0.0
15/01:07pm NNE 17 27 - - - - - - - 28.4 1010.2 0.0
15/01:00pm NNE 13 22 - - - - - - - 28.6 1010.6 0.0
15/12:30pm NNE 9 15 - - - - - - - 30.3 1011.4 0.0
15/12:00pm NE 10 18 - - - - - - - 28.1 1012.2 0.0
15/11:30am N 7 13 - - - - - - - 30.1 1012.9 0.0
15/11:00am NNE 8 18 - - - - - - - 27.7 1013.4 0.0
15/10:30am N 6 11 - - - - - - - 28.5 1014.1 0.0
15/10:00am NNE 6 15 - - - - - - - 26.0 1014.6 0.0
15/09:30am N 13 17 - - - - - - - 26.9 1015.0 0.0
15/09:00am N 11 16 - - - - - - - 26.0 1015.6 0.0
15/08:30am NNE 8 11 - - - - - - - 24.6 1015.8 0.0
15/08:00am N 8 10 - - - - - - - 23.4 1015.9 0.0
15/07:30am N 9 11 - - - - - - - 22.8 1016.0 0.0
15/07:00am N 7 9 - - - - - - - 22.5 1016.1 0.0
15/06:30am N 4 6 - - - - - - - 22.0 1015.7 0.0
15/06:00am NNW 5 8 - - - - - - - 21.8 1015.3 0.0
15/05:30am NNW 5 7 - - - - - - - 21.2 1015.1 0.0
15/05:00am NNW 5 6 - - - - - - - 21.0 1014.6 0.0
15/04:30am NNW 4 6 - - - - - - - 21.1 1014.3 0.0
15/04:00am NNW 5 6 - - - - - - - 21.2 1014.1 0.0
15/03:30am NNW 6 10 - - - - - - - 21.0 1013.9 0.0
15/03:00am NNW 7 10 - - - - - - - 20.9 1013.8 0.0
15/02:30am NNW 5 8 - - - - - - - 20.6 1014.0 0.0
15/02:00am SSW 4 6 - - - - - - - 20.6 1014.4 0.0
15/01:30am S 4 6 - - - - - - - 20.7 1014.6 0.0
15/01:00am N 6 9 - - - - - - - 20.9 1014.9 0.0
15/12:30am N 7 13 - - - - - - - 21.1 1015.2 0.0
15/12:00am N 9 12 - - - - - - - 21.1 1015.5 0.0
 
Date/Time
EST
Wind Sea
Height
m
Swell Vis
km
Cloud Weather Temp
°C
Press
hPa
Rain since
9am
mm
Dir  Spd
kts
Gust
kts
Height
m
Period
s
Dir
14/11:30pm N 9 13 - - - - - - - 21.1 1015.8 0.0
14/11:00pm N 10 13 - - - - - - - 21.2 1016.0 0.0
14/10:30pm N 11 16 - - - - - - - 21.5 1016.0 0.0
14/10:00pm N 10 14 - - - - - - - 21.5 1016.2 0.0
14/09:30pm N 10 14 - - - - - - - 21.8 1016.6 0.0
14/09:00pm N 11 13 - - - - - - - 22.1 1016.7 0.0
14/08:30pm N 7 9 - - - - - - - 22.1 1017.1 0.0
14/08:00pm N 7 11 - - - - - - - 22.3 1017.1 0.0
14/07:30pm NNE 19 22 - - - - - - - 23.1 1016.3 0.0
14/07:00pm NNE 19 22 - - - - - - - 23.0 1016.1 0.0
14/06:30pm NNE 19 23 - - - - - - - 23.0 1015.7 0.0
14/06:00pm NNE 19 24 - - - - - - - 22.8 1015.3 0.0
14/05:30pm NNE 18 21 - - - - - - - 23.0 1015.1 0.0
14/05:00pm NNE 16 20 - - - - - - - 23.2 1014.8 0.0
14/04:30pm NE 15 21 - - - - - - - 23.3 1014.5 0.0
14/04:00pm NE 15 21 - - - - - - - 23.6 1014.6 0.0
14/03:30pm NE 13 18 - - - - - - - 23.8 1014.8 0.0
14/03:00pm NE 13 17 - - - - - - - 24.0 1014.8 0.0
14/02:30pm NE 13 19 - - - - - - - 24.2 1015.1 0.0
14/02:00pm NE 12 16 - - - - - - - 24.2 1015.6 0.0
14/01:30pm NE 12 16 - - - - - - - 24.4 1015.7 0.0
14/01:00pm NE 12 17 - - - - - - - 24.3 1016.3 0.0
14/12:30pm NE 12 15 - - - - - - - 24.6 1016.9 0.0
14/12:00pm NE 12 15 - - - - - - - 24.1 1017.5 0.0
14/11:30am NE 11 14 - - - - - - - 24.3 1018.1 0.0
14/11:00am NE 9 13 - - - - - - - 24.6 1018.5 0.0
14/10:30am NE 9 12 - - - - - - - 23.9 1018.9 0.0
14/10:00am NE 10 12 - - - - - - - 23.8 1019.3 0.0
14/09:30am NE 10 12 - - - - - - - 23.9 1019.5 0.0
14/09:00am NE 10 14 - - - - - - - 23.6 1019.6 0.0
14/08:30am NE 10 13 - - - - - - - 23.4 1019.7 0.0
14/08:00am NE 9 12 - - - - - - - 23.0 1019.5 0.0
14/07:30am NE 12 15 - - - - - - - 22.9 1019.4 0.0
14/07:00am ENE 11 13 - - - - - - - 22.5 1019.5 0.0
14/06:30am ENE 13 15 - - - - - - - 22.2 1019.0 0.0
14/06:00am ENE 14 16 - - - - - - - 22.0 1018.5 0.0
14/05:30am ENE 15 17 - - - - - - - 22.0 1018.1 0.0
14/05:00am NE 15 18 - - - - - - - 22.0 1017.8 0.0
14/04:30am NE 14 17 - - - - - - - 22.1 1017.7 0.0
14/04:00am ENE 15 17 - - - - - - - 22.1 1017.5 0.0
14/03:30am NE 14 17 - - - - - - - 22.0 1017.3 0.0
14/03:00am ENE 15 17 - - - - - - - 22.3 1017.2 0.0
14/02:30am ENE 15 17 - - - - - - - 22.3 1017.3 0.0
14/02:00am ENE 13 16 - - - - - - - 22.4 1017.4 0.0
14/01:30am ENE 14 17 - - - - - - - 22.4 1017.4 0.0
14/01:00am ENE 14 17 - - - - - - - 22.5 1017.7 0.0
14/12:30am ENE 13 16 - - - - - - - 22.7 1017.9 0.0
14/12:00am ENE 14 16 - - - - - - - 22.5 1018.0 0.0
 
Date/Time
EST
Wind Sea
Height
m
Swell Vis
km
Cloud Weather Temp
°C
Press
hPa
Rain since
9am
mm
Dir  Spd
kts
Gust
kts
Height
m
Period
s
Dir
13/11:30pm ENE 12 15 - - - - - - - 22.5 1018.2 0.0
13/11:00pm NE 11 13 - - - - - - - 22.7 1018.2 0.0
13/10:30pm ENE 11 13 - - - - - - - 22.6 1017.9 0.0
13/10:00pm NE 11 14 - - - - - - - 22.6 1017.8 0.0
13/09:30pm NE 11 12 - - - - - - - 22.8 1017.8 0.0
13/09:00pm NE 9 12 - - - - - - - 22.7 1017.6 0.0
13/08:30pm NE 8 11 - - - - - - - 22.9 1017.4 0.0
13/08:00pm NE 9 13 - - - - - - - 22.7 1016.9 0.0
13/07:30pm NE 10 13 - - - - - - - 23.0 1016.2 0.0
13/07:00pm NNE 11 15 - - - - - - - 22.8 1015.8 0.0
13/06:30pm NNE 13 17 - - - - - - - 22.9 1015.4 0.0
13/06:00pm NNE 15 17 - - - - - - - 23.0 1015.0 0.0
13/05:30pm NNE 14 17 - - - - - - - 23.0 1014.5 0.0
13/05:00pm NNE 16 18 - - - - - - - 23.1 1014.0 0.0
13/04:30pm NE 13 19 - - - - - - - 23.6 1013.7 0.0
13/04:00pm NNE 13 17 - - - - - - - 23.7 1013.6 0.0
13/03:30pm NNE 14 17 - - - - - - - 23.9 1013.7 0.0
13/03:00pm NNE 13 16 - - - - - - - 24.5 1013.8 0.0
13/02:30pm NE 10 13 - - - - - - - 25.1 1014.2 0.0
13/02:00pm NE 12 14 - - - - - - - 24.8 1014.5 0.0
13/01:30pm ENE 12 13 - - - - - - - 24.1 1014.8 0.0
13/01:00pm ENE 11 14 - - - - - - - 24.4 1015.2 0.0
13/12:30pm ENE 10 13 - - - - - - - 24.4 1015.7 0.0
13/12:00pm E 11 12 - - - - - - - 24.3 1016.1 0.0
13/11:30am E 11 13 - - - - - - - 23.9 1016.5 0.0
13/11:00am E 11 13 - - - - - - - 23.9 1016.9 0.0
13/10:30am E 12 16 - - - - - - - 23.5 1017.1 0.0
13/10:00am E 12 14 - - - - - - - 23.4 1017.2 0.0
13/09:30am E 11 13 - - - - - - - 23.5 1017.2 0.0
13/09:00am E 9 11 - - - - - - - 23.1 1017.1 0.2
13/08:30am E 7 9 - - - - - - - 23.0 1017.2 0.2
13/08:00am WSW 3 4 - - - - - - - 22.2 1017.1 0.2
13/07:30am WSW 3 6 - - - - - - - 20.7 1016.9 0.2
13/07:00am WSW 4 6 - - - - - - - 18.9 1016.7 0.2
13/06:30am W 4 5 - - - - - - - 17.0 1016.3 0.2
13/06:00am W 6 7 - - - - - - - 15.5 1015.9 0.2
13/05:30am W 3 3 - - - - - - - 15.6 1015.5 0.2
13/05:00am W 5 6 - - - - - - - 15.9 1015.1 0.2
13/04:30am SSE 4 5 - - - - - - - 16.1 1014.7 0.2
13/04:00am SSE 4 5 - - - - - - - 16.5 1014.5 0.2
13/03:30am SSE 4 5 - - - - - - - 16.6 1014.2 0.2
13/03:00am SSE 3 6 - - - - - - - 16.6 1014.0 0.2
13/02:30am W 7 10 - - - - - - - 16.5 1013.3 0.2
13/02:00am W 8 9 - - - - - - - 16.6 1013.1 0.2
13/01:30am WSW 6 8 - - - - - - - 16.5 1013.4 0.2
13/01:00am W 8 10 - - - - - - - 17.2 1013.5 0.2
13/12:30am W 7 9 - - - - - - - 17.2 1013.5 0.2
13/12:00am WNW 7 8 - - - - - - - 16.8 1013.6 0.2

Other formats

Comma delimited format used in spreadsheet applications
http://www.bom.gov.au/fwo/IDQ60701/IDQ60701.94373.axf

JavaScript Object Notation format (JSON) in row-major order
http://www.bom.gov.au/fwo/IDQ60701/IDQ60701.94373.json

Data quality

Most of these data are generated automatically and are frequently updated. Quality checks on data are not normally performed. It is possible for incorrect values to appear. Refer to information at About Latest Weather Observations and please check the disclaimer before using these data.